createdAt,value
2022-09-12T00:02:05.218Z,76.16
2022-09-12T00:04:34.073Z,77.61
2022-09-12T00:07:02.751Z,78.41
2022-09-12T00:09:32.679Z,80.95
2022-09-12T00:12:01.569Z,79.31
2022-09-12T00:14:30.732Z,83.46
2022-09-12T00:17:00.606Z,80.93
2022-09-12T00:19:31.548Z,77.69
2022-09-12T00:22:00.224Z,79.93
2022-09-12T00:24:28.963Z,83.64
2022-09-12T00:26:59.068Z,80.11
2022-09-12T00:29:27.702Z,80.41
2022-09-12T00:31:56.302Z,82.00
2022-09-12T00:34:25.179Z,80.81
2022-09-12T00:36:53.862Z,80.59
2022-09-12T00:39:22.448Z,81.81
2022-09-12T00:41:51.684Z,81.25
2022-09-12T00:44:51.069Z,81.93
2022-09-12T00:47:26.237Z,80.79
2022-09-12T00:50:06.226Z,82.27
2022-09-12T00:52:42.702Z,84.20
2022-09-12T00:55:16.556Z,82.38
2022-09-12T01:02:20.049Z,84.53
2022-09-12T01:04:49.662Z,81.56
2022-09-12T01:07:18.468Z,82.45
2022-09-12T01:09:48.128Z,84.28
2022-09-12T01:12:17.764Z,83.90
2022-09-12T01:14:46.475Z,83.99
2022-09-12T01:17:16.937Z,82.78
2022-09-12T01:20:28.393Z,83.92
2022-09-12T01:24:08.054Z,85.92
2022-09-12T01:27:35.757Z,88.78
2022-09-12T01:30:49.094Z,86.84
2022-09-12T01:33:35.266Z,85.56
2022-09-12T01:36:46.036Z,87.42
2022-09-12T01:39:31.274Z,84.93
2022-09-12T01:42:16.320Z,86.34
2022-09-12T01:49:24.513Z,86.02
2022-09-12T01:52:04.594Z,85.69
2022-09-12T01:54:42.259Z,86.89
2022-09-12T01:57:19.934Z,86.58
2022-09-12T01:59:55.769Z,87.14
2022-09-12T02:02:33.229Z,88.65
2022-09-12T02:05:11.640Z,89.67
2022-09-12T02:07:47.490Z,87.29
2022-09-12T02:10:21.842Z,84.15
2022-09-12T02:12:58.448Z,87.51
2022-09-12T02:15:33.641Z,84.96
2022-09-12T02:18:07.029Z,85.96
2022-09-12T02:20:49.116Z,86.88
2022-09-12T02:23:24.425Z,85.69
2022-09-12T02:26:01.306Z,87.86
2022-09-12T02:28:35.738Z,88.03
2022-09-12T02:31:18.773Z,87.40
2022-09-12T02:33:59.060Z,86.46
2022-09-12T02:36:46.188Z,87.92
2022-09-12T02:39:19.615Z,85.28
2022-09-12T02:41:49.183Z,89.21
2022-09-12T02:44:18.012Z,87.92
2022-09-12T02:46:51.714Z,89.76
2022-09-12T02:49:21.221Z,90.33
2022-09-12T02:51:52.038Z,91.40
2022-09-12T02:54:22.429Z,93.65
2022-09-12T02:56:51.174Z,93.73
2022-09-12T02:59:24.107Z,87.61
2022-09-12T03:02:23.330Z,89.81
2022-09-12T03:05:25.899Z,87.68
2022-09-12T03:08:52.058Z,87.56
2022-09-12T03:11:39.201Z,86.38
2022-09-12T03:14:31.673Z,88.83
2022-09-12T03:17:15.599Z,87.87
2022-09-12T03:19:59.985Z,85.74
2022-09-12T03:22:37.989Z,89.93
2022-09-12T03:25:18.703Z,87.66
2022-09-12T03:28:00.207Z,88.24
2022-09-12T03:30:29.173Z,88.03
2022-09-12T03:32:57.849Z,84.69
2022-09-12T03:35:26.795Z,86.49
2022-09-12T03:37:55.583Z,87.03
2022-09-12T03:40:25.513Z,87.69
2022-09-12T03:42:54.087Z,88.16
2022-09-12T03:45:22.905Z,91.14
2022-09-12T03:47:51.577Z,86.44
2022-09-12T03:50:20.343Z,88.61
2022-09-12T03:52:49.160Z,86.76
2022-09-12T03:55:18.200Z,88.49
2022-09-12T03:57:48.333Z,84.08
2022-09-12T04:00:19.895Z,89.07
2022-09-12T04:02:48.704Z,87.55
2022-09-12T04:09:49.289Z,89.02
2022-09-12T04:12:18.095Z,87.80
2022-09-12T04:14:48.058Z,86.55
2022-09-12T04:17:17.248Z,87.11
2022-09-12T04:19:45.995Z,88.82
2022-09-12T04:22:14.948Z,88.36
2022-09-12T04:24:43.526Z,86.92
2022-09-12T04:27:12.323Z,86.68
2022-09-12T04:29:41.620Z,85.43
2022-09-12T04:32:11.755Z,88.31
2022-09-12T04:34:40.538Z,88.04
2022-09-12T04:37:09.094Z,91.70
2022-09-12T04:39:37.687Z,92.78
2022-09-12T04:42:07.304Z,90.23
2022-09-12T04:49:10.710Z,92.24
2022-09-12T04:51:42.286Z,93.58
2022-09-12T04:54:17.445Z,89.74
2022-09-12T04:56:48.791Z,94.86
2022-09-12T05:03:50.383Z,89.42
2022-09-12T05:06:22.831Z,86.54
2022-09-12T05:08:53.223Z,87.66
2022-09-12T05:11:33.006Z,87.42
2022-09-12T05:14:10.750Z,90.76
2022-09-12T05:16:40.315Z,86.69
2022-09-12T05:19:10.680Z,87.94
2022-09-12T05:21:40.600Z,89.74
2022-09-12T05:24:11.975Z,87.63
2022-09-12T05:26:40.570Z,89.25
2022-09-12T05:29:09.239Z,91.99
2022-09-12T05:31:39.175Z,91.76
2022-09-12T05:34:10.249Z,88.04
2022-09-12T05:36:40.667Z,87.00
2022-09-12T05:39:09.548Z,85.97
2022-09-12T05:41:38.185Z,89.83
2022-09-12T05:44:14.138Z,91.94
2022-09-12T05:51:19.283Z,94.18
2022-09-12T05:53:52.918Z,98.44
2022-09-12T05:56:25.338Z,90.44
2022-09-12T05:58:57.194Z,95.33
2022-09-12T06:01:28.164Z,90.25
2022-09-12T06:04:00.907Z,92.30
2022-09-12T06:06:32.444Z,92.78
2022-09-12T06:09:05.156Z,91.23
2022-09-12T06:11:37.305Z,91.32
2022-09-12T06:14:06.280Z,88.05
2022-09-12T06:16:37.298Z,91.43
2022-09-12T06:23:39.302Z,95.82
2022-09-12T06:26:11.983Z,96.33
2022-09-12T06:28:44.943Z,94.92
2022-09-12T06:35:47.768Z,91.58
2022-09-12T06:38:17.406Z,90.31
2022-09-12T06:40:46.249Z,92.68
2022-09-12T06:43:16.428Z,94.62
2022-09-12T06:45:51.145Z,93.51
2022-09-12T06:48:20.146Z,95.90
2022-09-12T06:50:58.834Z,94.79
2022-09-12T06:53:29.324Z,94.81
2022-09-12T06:55:59.662Z,93.89
2022-09-12T06:58:31.292Z,97.83
2022-09-12T07:01:04.771Z,98.19
2022-09-12T07:03:35.809Z,93.07
2022-09-12T07:06:06.462Z,92.62
2022-09-12T07:08:37.642Z,89.88
2022-09-12T07:11:16.645Z,94.44
2022-09-12T07:18:18.074Z,96.72
2022-09-12T07:20:46.847Z,94.48
2022-09-12T07:23:15.392Z,92.80
2022-09-12T07:25:44.009Z,93.60
2022-09-12T07:28:12.955Z,88.54
2022-09-12T07:30:41.751Z,92.64
2022-09-12T07:33:10.525Z,96.04
2022-09-12T07:35:40.695Z,97.96
2022-09-12T07:38:09.403Z,95.63
2022-09-12T07:40:38.008Z,97.15
2022-09-12T07:43:06.803Z,95.75
2022-09-12T07:45:35.668Z,91.25
2022-09-12T07:48:04.976Z,94.92
2022-09-12T07:50:34.256Z,91.25
2022-09-12T07:53:04.242Z,95.72
2022-09-12T07:55:33.918Z,87.82
2022-09-12T07:58:03.903Z,94.67
2022-09-12T08:00:35.973Z,97.89
2022-09-12T08:07:35.868Z,95.33
2022-09-12T08:10:07.381Z,89.57
2022-09-12T08:12:36.836Z,89.41
2022-09-12T08:15:07.133Z,89.09
2022-09-12T08:17:35.822Z,88.78
2022-09-12T08:20:05.494Z,90.31
2022-09-12T08:22:34.673Z,92.26
2022-09-12T08:25:06.627Z,89.66
2022-09-12T08:27:35.440Z,92.48
2022-09-12T08:30:05.362Z,89.44
2022-09-12T08:32:36.221Z,90.04
2022-09-12T08:35:05.476Z,84.98
2022-09-12T08:37:34.206Z,83.87
2022-09-12T08:40:08.547Z,86.30
2022-09-12T08:42:53.951Z,87.58
2022-09-12T08:45:33.119Z,89.28
2022-09-12T08:48:05.847Z,85.03
2022-09-12T08:50:34.663Z,88.03
2022-09-12T08:53:13.625Z,90.30
2022-09-12T08:55:47.341Z,86.02
2022-09-12T08:58:19.719Z,83.35
2022-09-12T09:01:01.806Z,82.60
2022-09-12T09:04:13.851Z,83.18
2022-09-12T09:07:18.308Z,83.36
2022-09-12T09:10:04.154Z,83.55
2022-09-12T09:12:48.638Z,80.41
2022-09-12T09:15:49.853Z,90.91
2022-09-12T09:18:25.071Z,84.87
2022-09-12T09:20:59.680Z,80.75
2022-09-12T09:23:33.431Z,83.20
2022-09-12T09:26:11.365Z,82.60
2022-09-12T09:28:47.497Z,81.91
2022-09-12T09:31:18.446Z,81.09
2022-09-12T09:33:51.711Z,80.38
2022-09-12T09:36:27.045Z,85.82
2022-09-12T09:39:05.875Z,81.92
2022-09-12T09:41:53.899Z,83.43
2022-09-12T09:44:24.746Z,83.45
2022-09-12T09:46:59.126Z,79.88
2022-09-12T09:49:31.426Z,76.53
2022-09-12T09:52:02.750Z,76.97
2022-09-12T09:54:39.838Z,83.06
2022-09-12T09:57:42.096Z,82.56
2022-09-12T10:00:32.786Z,77.58
2022-09-12T10:03:30.919Z,80.70
2022-09-12T10:06:03.108Z,81.56
2022-09-12T10:08:35.375Z,82.41
2022-09-12T10:11:08.791Z,79.68
2022-09-12T10:13:43.175Z,80.44
2022-09-12T10:16:23.249Z,80.63
2022-09-12T10:18:53.950Z,75.29
2022-09-12T10:21:35.841Z,75.58
2022-09-12T10:24:22.640Z,82.70
2022-09-12T10:26:57.169Z,81.01
2022-09-12T10:29:31.765Z,78.47
2022-09-12T10:32:07.262Z,80.43
2022-09-12T10:34:40.545Z,81.10
2022-09-12T10:37:16.780Z,82.70
2022-09-12T10:39:54.384Z,79.76
2022-09-12T10:42:47.950Z,78.92
2022-09-12T10:45:26.762Z,78.15
2022-09-12T10:48:02.082Z,76.72
2022-09-12T10:50:40.909Z,80.54
2022-09-12T10:53:21.382Z,74.96
2022-09-12T10:56:08.918Z,76.69
2022-09-12T10:59:05.522Z,75.46
2022-09-12T11:01:42.813Z,77.04
2022-09-12T11:04:34.775Z,76.34
2022-09-12T11:07:22.869Z,75.78
2022-09-12T11:10:04.419Z,75.14
2022-09-12T11:12:44.731Z,73.84
2022-09-12T11:15:41.845Z,76.53
2022-09-12T11:18:28.299Z,79.00
2022-09-12T11:21:20.675Z,76.77
2022-09-12T11:24:22.904Z,74.96
2022-09-12T11:28:30.314Z,74.29
2022-09-12T11:31:23.568Z,74.29
2022-09-12T11:33:56.699Z,74.05
2022-09-12T11:36:38.742Z,76.74
2022-09-12T11:39:18.535Z,73.34
2022-09-12T11:41:53.638Z,71.54
2022-09-12T11:44:30.213Z,74.99
2022-09-12T11:47:00.867Z,75.12
2022-09-12T11:49:39.924Z,75.17
2022-09-12T11:52:17.014Z,72.76
2022-09-12T11:54:54.045Z,72.48
2022-09-12T11:57:34.842Z,73.79
2022-09-12T12:00:08.642Z,74.47
2022-09-12T12:02:49.242Z,74.60
2022-09-12T12:05:26.002Z,75.08
2022-09-12T12:07:58.431Z,74.17
2022-09-12T12:10:37.244Z,73.18
2022-09-12T12:13:18.168Z,73.00
2022-09-12T12:15:51.563Z,74.00
2022-09-12T12:18:25.619Z,77.16
2022-09-12T12:20:58.081Z,75.92
2022-09-12T12:23:33.311Z,73.56
2022-09-12T12:26:04.601Z,77.39
2022-09-12T12:29:00.267Z,77.78
2022-09-12T12:31:29.029Z,76.54
2022-09-12T12:34:28.672Z,73.89
2022-09-12T12:36:59.198Z,76.47
2022-09-12T12:40:09.293Z,74.75
2022-09-12T12:43:04.642Z,72.32
2022-09-12T12:46:14.396Z,74.61
2022-09-12T12:49:18.943Z,74.66
2022-09-12T12:51:58.206Z,71.50
2022-09-12T12:59:06.166Z,75.26
2022-09-12T13:01:41.037Z,73.92
2022-09-12T13:04:18.903Z,73.14
2022-09-12T13:11:34.490Z,75.61
2022-09-12T13:14:09.516Z,74.67
2022-09-12T13:16:55.701Z,75.95
2022-09-12T13:19:30.478Z,74.76
2022-09-12T13:22:03.451Z,77.44
2022-09-12T13:24:32.326Z,81.08
2022-09-12T13:27:02.285Z,73.82
2022-09-12T13:29:32.371Z,71.89
2022-09-12T13:32:04.145Z,71.00
2022-09-12T13:34:38.359Z,72.68
2022-09-12T13:37:48.656Z,78.00
2022-09-12T13:40:36.407Z,70.94
2022-09-12T13:43:15.938Z,73.41
2022-09-12T13:45:48.695Z,70.87
2022-09-12T13:48:22.617Z,69.99
2022-09-12T13:50:56.231Z,70.55
2022-09-12T13:53:29.844Z,73.94
2022-09-12T13:56:00.963Z,71.88
2022-09-12T13:58:33.008Z,72.17
2022-09-12T14:01:07.715Z,73.09
2022-09-12T14:04:00.834Z,69.87
2022-09-12T14:06:29.960Z,74.21
2022-09-12T14:09:01.506Z,70.64
2022-09-12T14:11:33.942Z,67.65
2022-09-12T14:14:17.281Z,72.26
2022-09-12T14:16:47.435Z,71.94
2022-09-12T14:19:19.461Z,71.21
2022-09-12T14:21:49.907Z,73.80
2022-09-12T14:24:19.786Z,70.21
2022-09-12T14:26:50.392Z,72.67
2022-09-12T14:29:20.971Z,68.49
2022-09-12T14:32:03.691Z,68.27
2022-09-12T14:34:32.495Z,69.52
2022-09-12T14:37:07.295Z,68.88
2022-09-12T14:39:44.129Z,71.01
2022-09-12T14:42:18.969Z,66.97
2022-09-12T14:44:58.768Z,71.27
2022-09-12T14:47:42.107Z,68.36
2022-09-12T14:50:19.694Z,70.71
2022-09-12T14:53:04.233Z,70.61
2022-09-12T14:55:35.659Z,66.98
2022-09-12T14:58:23.517Z,65.36
2022-09-12T15:00:59.281Z,65.61
2022-09-12T15:03:33.765Z,69.01
2022-09-12T15:06:04.937Z,67.15
2022-09-12T15:08:34.461Z,66.86
2022-09-12T15:11:03.334Z,67.62
2022-09-12T15:13:42.840Z,71.42
2022-09-12T15:16:13.995Z,69.64
2022-09-12T15:18:44.390Z,66.54
2022-09-12T15:21:18.526Z,66.41
2022-09-12T15:23:49.857Z,72.42
2022-09-12T15:26:21.851Z,72.71
2022-09-12T15:28:52.130Z,75.54
2022-09-12T15:31:26.398Z,74.31
2022-09-12T15:33:58.517Z,75.04
2022-09-12T15:36:28.910Z,76.65
2022-09-12T15:38:58.204Z,80.30
2022-09-12T15:41:34.014Z,79.74
2022-09-12T15:44:04.589Z,82.05
2022-09-12T15:46:33.249Z,83.29
2022-09-12T15:49:03.442Z,84.29
2022-09-12T15:51:32.343Z,86.48
2022-09-12T15:54:04.605Z,87.40
2022-09-12T15:56:33.398Z,86.66
2022-09-12T15:59:02.078Z,85.97
2022-09-12T16:01:30.910Z,78.12
2022-09-12T16:03:59.898Z,85.04
2022-09-12T16:06:37.044Z,86.40
2022-09-12T16:09:06.317Z,87.14
2022-09-12T16:11:35.536Z,88.20
2022-09-12T16:14:06.380Z,90.09
2022-09-12T16:16:35.759Z,92.01
2022-09-12T16:19:05.237Z,94.04
2022-09-12T16:21:35.321Z,95.03
2022-09-12T16:24:05.646Z,96.08
2022-09-12T16:26:35.526Z,95.72
2022-09-12T16:29:04.318Z,94.46
2022-09-12T16:31:33.372Z,94.70
2022-09-12T16:34:02.096Z,95.36
2022-09-12T16:36:30.723Z,97.04
2022-09-12T16:39:00.996Z,97.35
2022-09-12T16:46:04.693Z,98.04
2022-09-12T16:48:34.397Z,99.27
2022-09-12T16:51:06.897Z,98.55
2022-09-12T16:53:39.645Z,98.38
2022-09-12T16:56:11.206Z,98.56
2022-09-12T16:58:43.186Z,97.32
2022-09-12T17:01:16.697Z,98.38
2022-09-12T17:03:45.724Z,99.77
2022-09-12T17:06:17.434Z,99.83
2022-09-12T17:08:49.018Z,100.00
2022-09-12T17:11:22.074Z,100.00
2022-09-12T17:14:09.943Z,99.55
2022-09-12T17:16:49.290Z,99.49
2022-09-12T17:19:26.431Z,100.00
2022-09-12T17:21:55.741Z,99.34
2022-09-12T17:24:25.241Z,99.86
2022-09-12T17:26:57.273Z,100.00
2022-09-12T17:29:26.090Z,100.00
2022-09-12T17:31:56.172Z,100.00
2022-09-12T17:34:24.904Z,100.00
2022-09-12T17:36:54.042Z,100.00
2022-09-12T17:39:23.171Z,100.00
2022-09-12T17:41:52.373Z,98.60
2022-09-12T17:44:24.424Z,98.37
2022-09-12T17:46:53.395Z,99.74
2022-09-12T17:54:01.129Z,99.59
2022-09-12T17:56:32.490Z,100.00
2022-09-12T17:59:03.340Z,100.00
2022-09-12T18:01:53.029Z,99.30
2022-09-12T18:04:22.277Z,100.00
2022-09-12T18:06:51.310Z,100.00
2022-09-12T18:09:23.765Z,100.00
2022-09-12T18:11:53.763Z,100.00
2022-09-12T18:14:23.134Z,100.00
2022-09-12T18:16:53.507Z,100.00
2022-09-12T18:19:23.383Z,99.68
2022-09-12T18:21:52.049Z,99.00
2022-09-12T18:24:21.632Z,98.83
2022-09-12T18:26:50.575Z,100.00
2022-09-12T18:29:20.373Z,100.00
2022-09-12T18:31:49.765Z,100.00
2022-09-12T18:34:20.639Z,100.00
2022-09-12T18:36:51.673Z,100.00
2022-09-12T18:39:24.107Z,100.00
2022-09-12T18:41:57.020Z,100.00
2022-09-12T18:44:26.287Z,100.00
2022-09-12T18:46:55.426Z,100.00
2022-09-12T18:49:25.844Z,100.00
2022-09-12T18:51:54.743Z,100.00
2022-09-12T18:54:23.432Z,100.00
2022-09-12T18:56:52.132Z,100.00
2022-09-12T18:59:21.102Z,100.00
2022-09-12T19:01:50.746Z,100.00
2022-09-12T19:04:20.241Z,100.00
2022-09-12T19:06:50.653Z,100.00
2022-09-12T19:09:22.107Z,100.00
2022-09-12T19:11:52.790Z,100.00
2022-09-12T19:14:25.009Z,100.00
2022-09-12T19:16:55.073Z,100.00
2022-09-12T19:19:24.542Z,100.00
2022-09-12T19:21:54.950Z,100.00
2022-09-12T19:24:24.437Z,100.00
2022-09-12T19:26:53.410Z,100.00
2022-09-12T19:29:22.106Z,100.00
2022-09-12T19:31:51.302Z,100.00
2022-09-12T19:34:20.138Z,100.00
2022-09-12T19:36:48.881Z,100.00
2022-09-12T19:39:20.654Z,100.00
2022-09-12T19:41:49.734Z,100.00
2022-09-12T19:44:20.049Z,100.00
2022-09-12T19:46:48.904Z,100.00
2022-09-12T19:49:17.762Z,100.00
2022-09-12T19:51:46.622Z,100.00
2022-09-12T19:54:15.269Z,100.00
2022-09-12T19:56:45.222Z,100.00
2022-09-12T19:59:14.181Z,100.00
2022-09-12T20:01:43.096Z,100.00
2022-09-12T20:04:11.933Z,100.00
2022-09-12T20:06:40.841Z,100.00
2022-09-12T20:09:09.437Z,100.00
2022-09-12T20:11:38.044Z,100.00
2022-09-12T20:14:08.206Z,100.00
2022-09-12T20:16:36.944Z,100.00
2022-09-12T20:19:08.690Z,100.00
2022-09-12T20:21:38.048Z,100.00
2022-09-12T20:24:11.133Z,100.00
2022-09-12T20:26:41.034Z,100.00
2022-09-12T20:29:11.864Z,100.00
2022-09-12T20:31:43.516Z,100.00
2022-09-12T20:34:17.426Z,100.00
2022-09-12T20:36:47.067Z,100.00
2022-09-12T20:39:18.933Z,100.00
2022-09-12T20:41:48.474Z,100.00
2022-09-12T20:44:18.888Z,100.00
2022-09-12T20:46:47.890Z,100.00
2022-09-12T20:49:16.747Z,100.00
2022-09-12T20:51:45.432Z,100.00
2022-09-12T20:54:14.027Z,100.00
2022-09-12T20:56:43.194Z,100.00
2022-09-12T20:59:13.055Z,100.00
2022-09-12T21:01:44.064Z,100.00
2022-09-12T21:04:15.269Z,100.00
2022-09-12T21:06:44.117Z,100.00
2022-09-12T21:09:12.795Z,100.00
2022-09-12T21:11:41.713Z,100.00
2022-09-12T21:14:10.593Z,100.00
2022-09-12T21:16:39.393Z,100.00
2022-09-12T21:19:10.009Z,100.00
2022-09-12T21:21:38.652Z,100.00
2022-09-12T21:24:08.583Z,100.00
2022-09-12T21:26:37.381Z,100.00
2022-09-12T21:29:06.334Z,100.00
2022-09-12T21:31:34.985Z,100.00
2022-09-12T21:34:03.996Z,100.00
2022-09-12T21:36:33.877Z,100.00
2022-09-12T21:39:02.540Z,100.00
2022-09-12T21:41:31.299Z,100.00
2022-09-12T21:43:59.972Z,100.00
2022-09-12T21:46:28.629Z,100.00
2022-09-12T21:48:57.511Z,100.00
2022-09-12T21:51:26.288Z,100.00
2022-09-12T21:53:56.221Z,100.00
2022-09-12T21:56:24.999Z,100.00
2022-09-12T21:58:53.572Z,100.00
2022-09-12T22:01:22.336Z,100.00
2022-09-12T22:03:52.056Z,100.00
2022-09-12T22:06:22.534Z,100.00
2022-09-12T22:08:51.550Z,100.00
2022-09-12T22:11:22.930Z,100.00
2022-09-12T22:13:51.533Z,100.00
2022-09-12T22:16:20.786Z,100.00
2022-09-12T22:18:50.775Z,100.00
2022-09-12T22:21:24.281Z,100.00
2022-09-12T22:24:10.760Z,100.00
2022-09-12T22:26:46.402Z,100.00
2022-09-12T22:29:15.239Z,100.00
2022-09-12T22:31:43.960Z,100.00
2022-09-12T22:34:12.738Z,100.00
2022-09-12T22:36:41.795Z,100.00
2022-09-12T22:39:10.473Z,100.00
2022-09-12T22:41:39.247Z,100.00
2022-09-12T22:44:10.533Z,100.00
2022-09-12T22:46:40.144Z,100.00
2022-09-12T22:49:09.076Z,100.00
2022-09-12T22:51:38.053Z,100.00
2022-09-12T22:54:07.213Z,100.00
2022-09-12T22:56:36.078Z,100.00
2022-09-12T22:59:05.605Z,100.00
2022-09-12T23:01:36.474Z,100.00
2022-09-12T23:04:05.401Z,100.00
2022-09-12T23:06:34.209Z,100.00
2022-09-12T23:09:02.840Z,100.00
2022-09-12T23:11:31.721Z,100.00
2022-09-12T23:14:00.430Z,100.00
2022-09-12T23:16:32.119Z,100.00
2022-09-12T23:19:02.156Z,100.00
2022-09-12T23:21:31.021Z,100.00
2022-09-12T23:23:59.685Z,100.00
2022-09-12T23:26:29.668Z,100.00
2022-09-12T23:29:01.878Z,100.00
2022-09-12T23:31:33.031Z,100.00
2022-09-12T23:34:06.877Z,100.00
2022-09-12T23:36:35.931Z,100.00
2022-09-12T23:39:05.624Z,100.00
2022-09-12T23:41:34.231Z,100.00
2022-09-12T23:44:03.485Z,100.00
2022-09-12T23:46:32.549Z,100.00
2022-09-12T23:49:02.578Z,100.00
2022-09-12T23:51:31.307Z,100.00
2022-09-12T23:54:00.107Z,100.00
2022-09-12T23:56:28.687Z,100.00
2022-09-12T23:58:57.349Z,100.00
